Glencoe, Oklahoma
Current Conditions -  °F | °C
As of 4:53 PM on Thursday 23 Oct 2014 (Local Time) from KSWO Reporting Station
Overcast Overcast  
Wind Chill: 76°   Ceiling: 4300
Heat Index: 76°   Visibility: 10mi
Dew Point: 59°   Wind: 7mph
Humidity: 56%   Direction: 160°SSE
Pressure: 30.04"   Gusts: NA
Location:  36.23°N, 96.93°W
Report Text: KSWO 232153Z AUTO 16006KT 10SM OVC043 24/15 A3004 RMK AO2 SLP161 T02440150
Loading
Personal Weather Stations






























Interactive Weather Map
Tropical Storm Tracking
New forecast layout! Learn more

10-Day Weather Forecast

Advertisements
Track Severe Weather on mobile